Home   Weather   Puerto Rico   Ponce   Past weeks
Flag for Puerto Rico

Past Weather in Ponce, Puerto Rico — Yesterday and Last 2 Weeks

Currently: 81 °F. Clear. (Weather station: Ponce / Mercedita, Puerto Rico). See more current weather

Past Weather in Ponce — Graph

°F

Ponce Temperature Yesterday

Maximum temperature yesterday: 93 °F (at 11:15 am)
Minimum temperature yesterday: 77 °F (at 2:15 am)
Average temperature yesterday: 85 °F

High & Low Weather Summary for the Past Weeks

 TemperatureHumidityPressure
High93 °F (Jun 1, 12:35 pm)94% (Jun 3, 6:50 am)30.07 "Hg (Jun 3, 6:50 am)
Low77 °F (Jun 2, 3:35 pm)53% (Jun 1, 12:55 pm)29.87 "Hg (Jun 5, 5:15 pm)
Average84 °F76%29.97 "Hg
* Reported May 29 6:15 pm — Jun 13 6:55 pm, Ponce. Weather by CustomWeather, © 2024

Note: Actual official high and low records may vary slightly from our data, if they occured in-between our weather recording intervals... More about our weather records

Ponce Weather History for the Previous 24 Hours

Scroll right to see more
 ConditionsComfort  
Time TempWeatherWind HumidityBarometerVisibility
6:55 pm
Thu, Jun 13
82 °FPartly sunny.3 mph84%29.95 "Hg10 mi
5:35 pm84 °FPartly sunny.6 mph79%29.93 "Hg10 mi
5:15 pm88 °FScattered clouds.13 mph66%29.93 "Hg9 mi
4:35 pm88 °FSunny.17 mph66%29.91 "Hg10 mi
4:10 pm90 °FSunny.17 mph59%29.92 "Hg10 mi
3:55 pm91 °FSunny.13 mph59%29.92 "Hg10 mi
3:35 pm91 °FSunny.20 mph59%29.91 "Hg10 mi
3:15 pm91 °FSunny.22 mph59%29.92 "Hg10 mi
2:55 pm91 °FSunny.18 mph63%29.93 "Hg10 mi
2:35 pm91 °FSunny.22 mph63%29.93 "Hg10 mi
2:15 pm91 °FSunny.21 mph63%29.93 "Hg10 mi
1:55 pm91 °FSunny.21 mph59%29.94 "Hg10 mi
1:35 pm93 °FSunny.17 mph56%29.95 "Hg10 mi
1:15 pm93 °FSunny.20 mph56%29.95 "Hg10 mi
12:55 pm91 °FSunny.22 mph59%29.96 "Hg10 mi
12:30 pm93 °FSunny.16 mph59%29.97 "Hg10 mi
12:15 pm93 °FSunny.18 mph59%29.97 "Hg10 mi
11:15 am91 °FSunny.16 mph63%29.98 "Hg10 mi
10:55 am91 °FSunny.14 mph63%29.98 "Hg10 mi
10:35 am90 °FSunny.14 mph67%29.98 "Hg10 mi
10:15 am90 °FBroken clouds.14 mph67%29.98 "Hg10 mi
9:55 am88 °FMostly cloudy.12 mph70%29.99 "Hg10 mi
9:35 am88 °FBroken clouds.10 mph66%30.00 "Hg10 mi
9:15 am90 °FPassing clouds.9 mph59%30.00 "Hg10 mi
8:50 am90 °FScattered clouds.7 mph59%29.99 "Hg10 mi
8:35 am88 °FPassing clouds.9 mph62%29.99 "Hg10 mi
7:55 am86 °FSunny.5 mph66%29.99 "Hg10 mi
7:35 am84 °FScattered clouds.5 mph74%29.99 "Hg10 mi
7:15 am82 °FBroken clouds.No wind79%29.99 "Hg10 mi
6:55 am82 °FScattered clouds.5 mph79%29.98 "Hg10 mi
6:35 am79 °FClear.No wind84%29.97 "Hg10 mi
6:15 am79 °FClear.3 mph84%29.96 "Hg10 mi
5:55 am79 °FClear.No wind84%29.96 "Hg10 mi
5:35 am79 °FClear.No wind84%29.95 "Hg10 mi
5:10 am79 °FPartly cloudy.No wind84%29.96 "Hg10 mi
4:55 am79 °FPassing clouds.No wind84%29.95 "Hg10 mi
4:35 am81 °FPassing clouds.No wind79%29.95 "Hg10 mi
3:55 am79 °FPassing clouds.No wind84%29.94 "Hg10 mi
3:35 am81 °FPartly cloudy.No wind79%29.95 "Hg10 mi
3:15 am81 °FMostly cloudy.No wind79%29.95 "Hg10 mi
2:55 am79 °FPassing clouds.No wind84%29.95 "Hg10 mi
2:35 am81 °FPassing clouds.No wind74%29.96 "Hg10 mi
2:15 am81 °FClear.No wind74%29.97 "Hg10 mi
1:30 am81 °FClear.No wind74%29.98 "Hg10 mi
12:55 am79 °FClear.5 mph79%29.98 "Hg10 mi
12:35 am79 °FClear.3 mph79%29.99 "Hg10 mi
12:15 am81 °FClear.No wind74%30.00 "Hg10 mi
11:55 pm
Wed, Jun 12
79 °FClear.5 mph79%30.00 "Hg10 mi
11:35 pm81 °FClear.3 mph74%30.01 "Hg10 mi
11:15 pm81 °FClear.No wind74%30.01 "Hg10 mi
10:35 pm81 °FClear.3 mph74%30.02 "Hg10 mi
Weather by CustomWeather, © 2024

See weather overview